Time;durP1;ratioP1;P1;durP2;ratioP2;P2;SDS_P1;SDS_P2;PMS_P1;PMS_P2;Temp;Humidity;BMP_temperature;BMP_pressure;BME280_temperature;BME280_humidity;BME280_pressure;Samples;Min_cycle;Max_cycle;Signal;HPM_P1;HPM_P2
2023/04/04 00:00:40;;;;;;;0.95;0.57;;;18.10;34.40;;;;;;6320320;22;20128;-85
2023/04/04 00:03:10;;;;;;;2.70;0.80;;;18.10;34.50;;;;;;6218057;22;20154;-85
2023/04/04 00:05:36;;;;;;;1.60;0.77;;;18.00;34.40;;;;;;6243245;22;20151;-85
2023/04/04 00:08:03;;;;;;;0.65;0.43;;;18.00;34.50;;;;;;6321201;22;20144;-85
2023/04/04 00:10:33;;;;;;;0.82;0.52;;;18.00;34.50;;;;;;6294906;22;20143;-85
2023/04/04 00:13:04;;;;;;;1.85;0.52;;;18.00;34.50;;;;;;6241780;22;20147;-85
2023/04/04 00:15:35;;;;;;;0.90;0.60;;;18.00;34.60;;;;;;6268687;22;20213;-85
2023/04/04 00:18:07;;;;;;;1.15;0.50;;;18.00;34.50;;;;;;6243359;22;20691;-87
2023/04/04 00:20:33;;;;;;;0.98;0.50;;;18.00;34.60;;;;;;6267564;22;20152;-85
2023/04/04 00:22:59;;;;;;;0.85;0.47;;;18.00;34.60;;;;;;6319543;22;20159;-85
2023/04/04 00:25:29;;;;;;;1.42;0.70;;;18.10;34.60;;;;;;6293828;22;20250;-85
2023/04/04 00:27:59;;;;;;;0.57;0.45;;;18.00;34.60;;;;;;6267428;22;20230;-85
2023/04/04 00:30:28;;;;;;;0.88;0.60;;;18.00;34.60;;;;;;6319970;22;20127;-85
2023/04/04 00:33:00;;;;;;;2.22;0.57;;;18.10;35.30;;;;;;6242966;22;20517;-85
2023/04/04 00:35:26;;;;;;;1.08;0.60;;;18.00;34.60;;;;;;6217782;22;20179;-85
2023/04/04 00:37:56;;;;;;;1.00;0.60;;;18.00;34.60;;;;;;6294607;22;20131;-85
2023/04/04 00:40:22;;;;;;;0.70;0.40;;;18.00;34.60;;;;;;6242427;22;20475;-85
2023/04/04 00:42:54;;;;;;;0.75;0.63;;;17.90;34.60;;;;;;6293991;22;20318;-85
2023/04/04 00:45:26;;;;;;;1.95;0.70;;;18.00;34.70;;;;;;6217355;22;20247;-85
2023/04/04 00:47:52;;;;;;;0.60;0.40;;;18.00;34.80;;;;;;6268779;22;20151;-85
2023/04/04 00:50:18;;;;;;;0.50;0.50;;;18.00;34.70;;;;;;6294400;22;20151;-85
2023/04/04 00:52:43;;;;;;;0.70;0.55;;;17.90;34.70;;;;;;6320109;22;20143;-85
2023/04/04 00:55:15;;;;;;;1.50;0.65;;;18.00;34.80;;;;;;6320566;22;20157;-85
2023/04/04 00:57:41;;;;;;;1.23;0.55;;;18.00;34.80;;;;;;6218053;22;20151;-85
2023/04/04 01:00:08;;;;;;;2.83;0.70;;;18.00;34.80;;;;;;6319384;22;20132;-85
2023/04/04 01:02:39;;;;;;;0.77;0.40;;;18.00;34.80;;;;;;6294391;22;20136;-85
2023/04/04 01:05:10;;;;;;;1.13;0.60;;;17.90;34.80;;;;;;6242521;22;20183;-84
2023/04/04 01:07:40;;;;;;;0.50;0.50;;;18.00;34.80;;;;;;6217742;22;20147;-84
2023/04/04 01:10:06;;;;;;;2.40;0.60;;;17.90;34.80;;;;;;6218323;22;20229;-85
2023/04/04 01:12:32;;;;;;;1.58;0.60;;;18.00;34.90;;;;;;6348033;22;20589;-85
2023/04/04 01:15:03;;;;;;;1.05;0.63;;;18.00;34.80;;;;;;6294650;22;20167;-85
2023/04/04 01:17:33;;;;;;;1.65;0.40;;;18.00;34.90;;;;;;6242467;22;20154;-85
2023/04/04 01:20:06;;;;;;;0.80;0.50;;;18.00;34.90;;;;;;6267936;22;20155;-85
2023/04/04 01:22:33;;;;;;;0.70;0.60;;;18.00;34.90;;;;;;6217972;22;20590;-85
2023/04/04 01:25:03;;;;;;;1.55;0.47;;;17.90;34.90;;;;;;6320452;22;20171;-85
2023/04/04 01:27:33;;;;;;;0.77;0.30;;;17.90;34.90;;;;;;6242770;22;20178;-85
2023/04/04 01:29:59;;;;;;;0.80;0.60;;;17.90;34.90;;;;;;6267936;22;20175;-85
2023/04/04 01:32:41;;;;;;;1.13;0.65;;;17.90;34.90;;;;;;6319382;22;20170;-84
2023/04/04 01:35:28;;;;;;;0.63;0.50;;;18.00;35.00;;;;;;6243944;22;20194;-84
2023/04/04 01:38:01;;;;;;;1.25;0.70;;;17.90;35.00;;;;;;6270945;22;20135;-84
2023/04/04 01:40:33;;;;;;;0.77;0.60;;;17.80;34.90;;;;;;6320416;22;20571;-85
2023/04/04 01:42:59;;;;;;;0.85;0.50;;;17.90;34.90;;;;;;6321197;22;20159;-85
2023/04/04 01:45:26;;;;;;;1.42;0.60;;;17.90;35.00;;;;;;6319246;22;20536;-86
2023/04/04 01:47:52;;;;;;;1.67;0.60;;;17.90;35.00;;;;;;6347662;22;20162;-85
2023/04/04 01:50:22;;;;;;;1.20;0.50;;;17.90;35.10;;;;;;6294279;22;20590;-85
2023/04/04 01:52:48;;;;;;;1.35;0.65;;;17.90;35.00;;;;;;6217643;22;20177;-85
2023/04/04 01:55:15;;;;;;;0.95;0.50;;;17.90;35.00;;;;;;6347294;22;20466;-84
2023/04/04 01:57:45;;;;;;;0.85;0.52;;;17.90;35.00;;;;;;6293288;22;20166;-85
2023/04/04 02:00:11;;;;;;;1.83;0.77;;;17.90;35.00;;;;;;6217141;22;20151;-85
2023/04/04 02:02:37;;;;;;;0.73;0.60;;;17.90;35.00;;;;;;6295118;22;20589;-85
2023/04/04 02:05:03;;;;;;;0.93;0.50;;;17.90;35.00;;;;;;6319505;22;20167;-85
2023/04/04 02:07:34;;;;;;;0.82;0.60;;;17.90;35.10;;;;;;6319924;22;20135;-85
2023/04/04 02:10:00;;;;;;;1.15;0.50;;;17.80;35.00;;;;;;6217458;22;20575;-85
2023/04/04 02:12:26;;;;;;;1.30;0.47;;;17.80;35.10;;;;;;6319928;22;20704;-85
2023/04/04 02:14:52;;;;;;;1.83;0.70;;;17.90;35.10;;;;;;6319565;22;20219;-84
2023/04/04 02:17:18;;;;;;;0.50;0.38;;;17.80;35.10;;;;;;6294468;22;20157;-85
2023/04/04 02:19:49;;;;;;;1.20;0.45;;;17.90;35.10;;;;;;6293601;22;20148;-85
2023/04/04 02:22:15;;;;;;;0.68;0.60;;;17.90;35.10;;;;;;6243784;22;20152;-84
2023/04/04 02:24:45;;;;;;;1.58;0.55;;;17.90;35.10;;;;;;6294616;22;20556;-85
2023/04/04 02:27:11;;;;;;;1.35;0.70;;;17.90;35.20;;;;;;6217754;22;20559;-85
2023/04/04 02:29:37;;;;;;;0.68;0.60;;;17.90;35.20;;;;;;6320150;22;20132;-84
2023/04/04 02:32:06;;;;;;;1.40;0.55;;;17.80;35.10;;;;;;6320427;22;20155;-85
2023/04/04 02:34:32;;;;;;;2.78;0.65;;;17.80;35.20;;;;;;6242812;22;20151;-85
2023/04/04 02:36:58;;;;;;;1.52;0.60;;;17.80;35.20;;;;;;6315661;22;20196;-84
2023/04/04 02:39:28;;;;;;;1.50;0.60;;;17.80;35.20;;;;;;6289230;22;20177;-85
2023/04/04 02:41:54;;;;;;;1.85;0.50;;;17.80;35.20;;;;;;6238469;22;20155;-86
2023/04/04 02:44:24;;;;;;;0.60;0.40;;;17.80;35.20;;;;;;6289151;22;20203;-85
2023/04/04 02:46:56;;;;;;;1.33;0.50;;;17.80;35.30;;;;;;6263013;22;20152;-85
2023/04/04 02:49:28;;;;;;;0.60;0.47;;;17.80;35.30;;;;;;6238471;22;20156;-85
2023/04/04 02:51:54;;;;;;;0.63;0.52;;;17.80;35.30;;;;;;6289402;22;20147;-84
2023/04/04 02:54:20;;;;;;;1.00;0.50;;;17.80;35.30;;;;;;6316300;22;20466;-84
2023/04/04 02:56:51;;;;;;;1.38;0.55;;;17.80;35.30;;;;;;6315988;22;20136;-85
2023/04/04 02:59:24;;;;;;;1.13;0.65;;;17.80;35.30;;;;;;6238412;22;20162;-85
2023/04/04 03:01:50;;;;;;;0.52;0.40;;;17.80;35.30;;;;;;6263605;22;20211;-85
2023/04/04 03:04:23;;;;;;;1.67;0.55;;;17.80;35.40;;;;;;6315478;22;20630;-85
2023/04/04 03:06:49;;;;;;;0.60;0.40;;;17.80;35.40;;;;;;6263463;22;20175;-85
2023/04/04 03:09:21;;;;;;;0.50;0.32;;;17.80;35.40;;;;;;6290133;22;20144;-85
2023/04/04 03:11:48;;;;;;;1.65;0.55;;;17.80;35.40;;;;;;6263565;22;20183;-86
2023/04/04 03:14:14;;;;;;;0.98;0.55;;;17.80;35.40;;;;;;6289574;22;20148;-85
2023/04/04 03:16:45;;;;;;;1.02;0.40;;;17.80;35.40;;;;;;6315007;22;20295;-85
2023/04/04 03:19:11;;;;;;;0.68;0.50;;;17.80;35.40;;;;;;6238176;22;20482;-86
2023/04/04 03:21:37;;;;;;;1.08;0.55;;;17.80;35.50;;;;;;6289887;22;20148;-85
2023/04/04 03:24:08;;;;;;;1.13;0.60;;;17.80;35.40;;;;;;6314594;22;20541;-85
2023/04/04 03:26:37;;;;;;;0.88;0.60;;;17.80;35.50;;;;;;6263128;22;20636;-85
2023/04/04 03:29:07;;;;;;;2.30;0.60;;;17.80;35.50;;;;;;6263621;22;20520;-85
2023/04/04 03:31:33;;;;;;;0.63;0.50;;;17.80;35.50;;;;;;6289040;22;20155;-85
2023/04/04 03:34:05;;;;;;;1.00;0.60;;;17.80;35.50;;;;;;6315527;22;20182;-85
2023/04/04 03:36:31;;;;;;;0.50;0.50;;;17.80;35.50;;;;;;6261529;22;20196;-85
2023/04/04 03:39:06;;;;;;;1.05;0.60;;;17.80;35.50;;;;;;6315179;22;20171;-86
2023/04/04 03:41:32;;;;;;;0.57;0.45;;;17.80;35.50;;;;;;6288520;22;20151;-85
2023/04/04 03:44:02;;;;;;;0.90;0.50;;;17.80;35.50;;;;;;6314191;22;20171;-85
2023/04/04 03:46:32;;;;;;;0.88;0.40;;;17.70;35.40;;;;;;6262682;22;20148;-86
2023/04/04 03:49:02;;;;;;;1.40;0.50;;;17.80;35.50;;;;;;6263272;22;20595;-85
2023/04/04 03:51:33;;;;;;;1.65;0.60;;;17.80;35.60;;;;;;6262329;22;20155;-85
2023/04/04 03:53:59;;;;;;;1.05;0.47;;;17.80;35.50;;;;;;6263051;22;20204;-85
2023/04/04 03:56:30;;;;;;;0.75;0.50;;;17.80;35.60;;;;;;6288894;22;20170;-85
2023/04/04 03:59:01;;;;;;;1.00;0.57;;;17.70;35.60;;;;;;6287280;22;20162;-85
2023/04/04 04:01:27;;;;;;;1.33;0.60;;;17.80;35.60;;;;;;6263162;22;20159;-86
2023/04/04 04:03:59;;;;;;;0.75;0.40;;;17.70;35.50;;;;;;6314758;22;20172;-85
2023/04/04 04:06:29;;;;;;;0.93;0.55;;;17.80;35.60;;;;;;6263470;22;20546;-85
2023/04/04 04:09:00;;;;;;;1.08;0.50;;;17.70;35.60;;;;;;6262454;22;20460;-86
2023/04/04 04:11:26;;;;;;;0.98;0.60;;;17.70;35.60;;;;;;6237266;22;20148;-85
2023/04/04 04:13:56;;;;;;;0.93;0.50;;;17.70;35.60;;;;;;6288298;22;20155;-85
2023/04/04 04:16:22;;;;;;;1.58;0.65;;;17.70;35.60;;;;;;6262580;22;20187;-85
2023/04/04 04:18:48;;;;;;;1.00;0.50;;;17.70;35.70;;;;;;6315296;22;20132;-85
2023/04/04 04:21:20;;;;;;;1.35;0.60;;;17.70;35.70;;;;;;6313574;22;20190;-85
2023/04/04 04:23:46;;;;;;;0.95;0.40;;;17.70;35.70;;;;;;6261617;22;20271;-85
2023/04/04 04:26:12;;;;;;;1.25;0.50;;;17.70;35.70;;;;;;6287870;22;20506;-86
2023/04/04 04:28:38;;;;;;;0.80;0.65;;;17.70;35.70;;;;;;6290215;22;20277;-85
2023/04/04 04:31:08;;;;;;;0.70;0.50;;;17.70;35.80;;;;;;6317061;22;20552;-85
2023/04/04 04:33:35;;;;;;;0.90;0.45;;;17.70;35.80;;;;;;6237844;22;20213;-85
2023/04/04 04:36:04;;;;;;;1.08;0.60;;;17.70;35.80;;;;;;6289318;22;20198;-85
2023/04/04 04:38:31;;;;;;;0.70;0.60;;;17.70;35.70;;;;;;6290879;22;20160;-84
2023/04/04 04:41:02;;;;;;;0.82;0.40;;;17.70;35.70;;;;;;6289456;22;20197;-85
2023/04/04 04:43:28;;;;;;;0.88;0.52;;;17.70;35.80;;;;;;6288508;22;20151;-86
2023/04/04 04:45:54;;;;;;;0.80;0.50;;;17.60;35.70;;;;;;6315687;22;20138;-85
2023/04/04 04:48:25;;;;;;;1.92;0.73;;;17.70;35.70;;;;;;6314798;22;20183;-85
2023/04/04 04:50:55;;;;;;;1.08;0.50;;;17.70;35.70;;;;;;6237380;22;20216;-85
2023/04/04 04:53:21;;;;;;;0.77;0.52;;;17.70;35.80;;;;;;6262782;22;20175;-85
2023/04/04 04:55:47;;;;;;;0.68;0.68;;;17.60;35.80;;;;;;6288803;22;20638;-85
2023/04/04 04:58:20;;;;;;;0.73;0.50;;;17.70;35.80;;;;;;6316327;22;20425;-85
2023/04/04 05:00:53;;;;;;;1.13;0.50;;;17.70;35.80;;;;;;6288941;22;20148;-85
2023/04/04 05:03:23;;;;;;;1.10;0.65;;;17.70;35.80;;;;;;6263191;22;20148;-85
2023/04/04 05:05:54;;;;;;;1.48;0.82;;;17.70;35.80;;;;;;6261024;22;20144;-85
2023/04/04 05:08:20;;;;;;;2.47;0.80;;;17.70;35.80;;;;;;6286817;22;20226;-85
2023/04/04 05:10:46;;;;;;;1.00;0.63;;;17.70;35.80;;;;;;6313407;22;20129;-85
2023/04/04 05:13:12;;;;;;;0.30;0.30;;;17.70;35.80;;;;;;6288793;22;20166;-85
2023/04/04 05:15:38;;;;;;;0.80;0.50;;;17.70;35.80;;;;;;6314569;22;20128;-85
2023/04/04 05:18:09;;;;;;;0.60;0.50;;;17.70;35.80;;;;;;6288492;22;20148;-85
2023/04/04 05:20:35;;;;;;;0.75;0.50;;;17.70;35.80;;;;;;6262202;22;20227;-84
2023/04/04 05:23:01;;;;;;;3.95;0.73;;;17.70;35.80;;;;;;6314144;22;20129;-84
2023/04/04 05:25:27;;;;;;;0.73;0.50;;;17.70;35.80;;;;;;6314603;22;20180;-85
2023/04/04 05:27:57;;;;;;;2.33;0.55;;;17.70;35.80;;;;;;6313889;22;20135;-85
2023/04/04 05:30:28;;;;;;;1.25;0.70;;;17.70;35.80;;;;;;6261240;22;20238;-85
2023/04/04 05:32:58;;;;;;;0.88;0.40;;;17.70;35.90;;;;;;6286951;22;20148;-86
2023/04/04 05:35:24;;;;;;;2.88;0.60;;;17.70;36.00;;;;;;6261109;22;20196;-85
2023/04/04 05:37:50;;;;;;;1.67;0.68;;;17.60;35.90;;;;;;6313115;22;20156;-85
2023/04/04 05:40:17;;;;;;;1.45;0.50;;;17.70;35.90;;;;;;6313337;22;20139;-85
2023/04/04 05:42:43;;;;;;;0.85;0.50;;;17.60;35.90;;;;;;6312700;22;20140;-85
2023/04/04 05:45:13;;;;;;;0.90;0.70;;;17.70;36.00;;;;;;6314619;22;20617;-85
2023/04/04 05:47:45;;;;;;;1.00;0.65;;;17.80;36.00;;;;;;6236203;22;20464;-85
2023/04/04 05:50:16;;;;;;;1.00;0.45;;;17.70;36.00;;;;;;6260885;22;20533;-85
2023/04/04 05:52:48;;;;;;;1.25;0.50;;;17.60;35.90;;;;;;6261647;22;20145;-85
2023/04/04 05:55:19;;;;;;;1.13;0.68;;;17.70;35.90;;;;;;6235410;22;20194;-85
2023/04/04 05:57:49;;;;;;;1.92;0.60;;;17.70;35.90;;;;;;6234316;22;20591;-85
2023/04/04 06:00:17;;;;;;;2.50;0.50;;;17.70;36.00;;;;;;6313724;22;20133;-86
2023/04/04 06:02:43;;;;;;;0.63;0.50;;;17.70;35.90;;;;;;6286713;22;20176;-85
2023/04/04 06:05:14;;;;;;;0.80;0.60;;;17.70;35.90;;;;;;6311832;22;20495;-85
2023/04/04 06:07:44;;;;;;;2.15;0.60;;;17.70;36.00;;;;;;6259705;22;20476;-84
2023/04/04 06:10:14;;;;;;;1.50;0.77;;;17.70;36.00;;;;;;6260103;22;20152;-84
2023/04/04 06:12:40;;;;;;;0.77;0.50;;;17.60;36.00;;;;;;6234651;22;20152;-84
2023/04/04 06:15:07;;;;;;;0.77;0.50;;;17.70;36.10;;;;;;6286118;22;20184;-85
2023/04/04 06:17:33;;;;;;;0.75;0.50;;;17.60;36.00;;;;;;6286284;22;20182;-85
2023/04/04 06:19:59;;;;;;;1.10;0.68;;;17.70;36.10;;;;;;6312517;22;20140;-85
2023/04/04 06:22:25;;;;;;;1.55;0.75;;;17.60;36.00;;;;;;6313809;22;20136;-86
2023/04/04 06:24:51;;;;;;;0.75;0.68;;;17.60;36.00;;;;;;6314114;22;20243;-85
2023/04/04 06:27:23;;;;;;;1.33;0.73;;;17.60;36.10;;;;;;6312528;22;20148;-85
2023/04/04 06:29:49;;;;;;;0.60;0.45;;;17.70;36.00;;;;;;6260981;22;20148;-84
2023/04/04 06:32:15;;;;;;;2.50;0.82;;;17.70;36.10;;;;;;6288326;22;20170;-84
2023/04/04 06:34:40;;;;;;;0.77;0.60;;;17.70;36.80;;;;;;6290395;22;20576;-85
2023/04/04 06:37:06;;;;;;;1.25;0.77;;;17.70;35.90;;;;;;6295809;22;20161;-85
2023/04/04 06:39:36;;;;;;;1.10;0.43;;;17.70;36.10;;;;;;6319797;22;20151;-85
2023/04/04 06:42:02;;;;;;;1.30;0.52;;;17.70;36.00;;;;;;6241895;22;20174;-85
2023/04/04 06:44:28;;;;;;;0.85;0.50;;;17.80;35.80;;;;;;6295088;22;20541;-84
2023/04/04 06:46:54;;;;;;;1.58;0.50;;;17.80;35.70;;;;;;6346847;22;20173;-84
2023/04/04 06:49:24;;;;;;;1.02;0.60;;;17.90;35.70;;;;;;6293368;22;20578;-85
2023/04/04 06:51:51;;;;;;;1.60;0.60;;;17.90;35.70;;;;;;6241939;22;20158;-84
2023/04/04 06:54:17;;;;;;;2.45;0.63;;;17.90;35.50;;;;;;6349093;22;20131;-85
2023/04/04 06:56:47;;;;;;;0.75;0.55;;;17.90;35.40;;;;;;6331243;22;20119;-85
2023/04/04 06:59:26;;;;;;;2.40;0.60;;;17.90;35.50;;;;;;6308325;22;20147;-84
2023/04/04 07:02:03;;;;;;;0.88;0.50;;;17.90;35.50;;;;;;6227330;22;20162;-84
2023/04/04 07:04:58;;;;;;;;;;;;;;;;;;;;;
2023/04/04 07:10:38;;;;;;;0.88;0.50;;;18.10;35.20;;;;;;6336945;22;20205;-83
2023/04/04 07:13:09;;;;;;;0.85;0.40;;;18.10;35.30;;;;;;6225371;22;20151;-84
2023/04/04 07:15:39;;;;;;;0.45;0.30;;;18.10;35.30;;;;;;6252643;22;20151;-85
2023/04/04 07:18:15;;;;;;;0.30;0.30;;;18.10;35.20;;;;;;6251581;22;20206;-85
2023/04/04 07:20:48;;;;;;;0.40;0.40;;;18.20;35.10;;;;;;6226905;22;20161;-85
2023/04/04 07:23:15;;;;;;;0.70;0.47;;;18.10;35.10;;;;;;6224776;22;20147;-85
2023/04/04 07:25:45;;;;;;;1.15;0.60;;;18.20;35.10;;;;;;6324946;22;20136;-85
2023/04/04 07:28:19;;;;;;;1.92;0.60;;;18.10;35.20;;;;;;6310414;22;20146;-85
2023/04/04 07:30:48;;;;;;;1.08;0.60;;;18.10;35.20;;;;;;6306034;22;20200;-84
2023/04/04 07:33:14;;;;;;;0.80;0.60;;;18.10;35.30;;;;;;6303255;22;20158;-85
2023/04/04 07:35:45;;;;;;;0.73;0.52;;;18.10;35.30;;;;;;6332338;22;20147;-84
2023/04/04 07:38:20;;;;;;;0.77;0.50;;;18.10;35.20;;;;;;6283941;22;20169;-84
2023/04/04 07:40:52;;;;;;;2.47;0.40;;;18.10;35.10;;;;;;6281142;22;20162;-84
2023/04/04 07:43:20;;;;;;;0.90;0.57;;;18.10;35.30;;;;;;6327889;22;20142;-84
2023/04/04 07:45:55;;;;;;;1.75;0.60;;;18.00;35.40;;;;;;6304951;22;20211;-84
2023/04/04 07:48:23;;;;;;;5.78;0.60;;;18.00;35.50;;;;;;6328764;22;20166;-84
2023/04/04 07:50:50;;;;;;;6.40;0.75;;;18.00;35.60;;;;;;6279479;22;20233;-85
2023/04/04 07:53:20;;;;;;;9.30;0.98;;;18.00;35.30;;;;;;6273202;22;20151;-84
2023/04/04 07:55:50;;;;;;;2.75;0.63;;;18.10;35.50;;;;;;6300178;22;20151;-84
2023/04/04 07:58:26;;;;;;;7.35;0.82;;;18.00;35.50;;;;;;6224607;22;20147;-84
2023/04/04 08:01:06;;;;;;;1.67;0.47;;;18.00;35.40;;;;;;6302980;22;20453;-84
2023/04/04 08:03:40;;;;;;;5.45;0.50;;;18.10;35.40;;;;;;6255434;22;20147;-85
2023/04/04 08:06:10;;;;;;;3.53;0.60;;;18.10;35.30;;;;;;6284854;22;20138;-85
2023/04/04 08:08:36;;;;;;;2.15;0.50;;;18.10;35.30;;;;;;6285065;22;20195;-84
2023/04/04 08:11:14;;;;;;;4.20;0.55;;;18.10;35.30;;;;;;6305801;22;20161;-85
2023/04/04 08:13:47;;;;;;;2.03;0.40;;;18.10;35.40;;;;;;6308186;22;20123;-83
2023/04/04 08:16:12;;;;;;;1.38;0.40;;;18.10;35.20;;;;;;6278705;22;20135;-85
2023/04/04 08:18:39;;;;;;;2.72;0.43;;;18.20;35.10;;;;;;6273982;22;20223;-85
2023/04/04 08:21:14;;;;;;;2.72;0.38;;;18.20;35.10;;;;;;6304631;22;20142;-86
2023/04/04 08:23:40;;;;;;;1.90;0.47;;;18.30;35.00;;;;;;6305031;22;20178;-85
2023/04/04 08:26:07;;;;;;;1.70;0.40;;;18.30;35.10;;;;;;6278665;22;20145;-84
2023/04/04 08:28:48;;;;;;;0.60;0.40;;;18.20;35.10;;;;;;6308319;22;20129;-84
2023/04/04 08:31:14;;;;;;;1.77;0.50;;;18.40;35.00;;;;;;6280137;22;20153;-85
2023/04/04 08:33:48;;;;;;;2.20;0.40;;;18.30;35.20;;;;;;6306037;22;20150;-85
2023/04/04 08:36:19;;;;;;;2.75;0.40;;;18.30;35.00;;;;;;6238452;23;20160;-85
2023/04/04 08:38:44;;;;;;;2.10;0.60;;;18.30;35.00;;;;;;6233955;23;20243;-85
2023/04/04 08:41:17;;;;;;;0.60;0.40;;;18.30;35.10;;;;;;6254423;23;20157;-86
2023/04/04 08:43:53;;;;;;;1.30;0.52;;;18.30;35.00;;;;;;6205949;23;20215;-85
2023/04/04 08:46:24;;;;;;;1.02;0.50;;;18.30;35.20;;;;;;6209804;23;20149;-86
2023/04/04 08:49:03;;;;;;;1.95;0.60;;;18.20;35.10;;;;;;6230474;23;20156;-86
2023/04/04 08:51:33;;;;;;;0.57;0.35;;;18.30;35.20;;;;;;6231384;23;20195;-86
2023/04/04 08:54:01;;;;;;;0.90;0.30;;;18.30;35.20;;;;;;6235485;23;20157;-87
2023/04/04 08:56:27;;;;;;;0.88;0.45;;;18.40;35.30;;;;;;6209122;23;20149;-84
2023/04/04 08:58:57;;;;;;;1.15;0.30;;;18.30;35.20;;;;;;6211314;23;20209;-84
2023/04/04 09:01:25;;;;;;;0.98;0.50;;;18.40;35.20;;;;;;6212316;23;20145;-84
2023/04/04 09:04:01;;;;;;;1.33;0.50;;;18.40;35.70;;;;;;6211910;23;20221;-86
2023/04/04 09:06:32;;;;;;;0.40;0.38;;;18.50;36.20;;;;;;6194983;23;20176;-86
2023/04/04 09:09:00;;;;;;;0.95;0.43;;;18.40;35.70;;;;;;6147243;23;20191;-87
2023/04/04 09:11:33;;;;;;;0.82;0.30;;;18.50;35.50;;;;;;6198285;23;20150;-85
2023/04/04 09:14:05;;;;;;;0.38;0.38;;;18.50;35.60;;;;;;6211874;23;20153;-87
2023/04/04 09:16:41;;;;;;;1.33;0.38;;;18.40;35.40;;;;;;6234826;23;20148;-84
2023/04/04 09:19:15;;;;;;;2.67;0.40;;;18.40;35.50;;;;;;6187349;23;20159;-85
2023/04/04 09:21:49;;;;;;;1.30;0.50;;;18.60;35.20;;;;;;6236419;23;20141;-85
2023/04/04 09:24:16;;;;;;;1.33;0.40;;;18.50;35.30;;;;;;6170949;23;20550;-85
2023/04/04 09:26:56;;;;;;;1.70;0.50;;;18.50;35.10;;;;;;6146601;23;20151;-84
2023/04/04 09:29:27;;;;;;;4.20;0.50;;;18.50;34.90;;;;;;6148184;23;20159;-84
2023/04/04 09:31:53;;;;;;;1.90;0.40;;;18.50;34.90;;;;;;6144102;23;20622;-85
2023/04/04 09:34:25;;;;;;;2.35;0.35;;;18.50;35.10;;;;;;6140864;23;20162;-85
2023/04/04 09:36:57;;;;;;;1.75;0.35;;;18.50;35.40;;;;;;6163857;23;20167;-84
2023/04/04 09:39:28;;;;;;;1.33;0.40;;;18.50;35.00;;;;;;6166159;23;20254;-84
2023/04/04 09:42:00;;;;;;;0.30;0.20;;;18.50;35.60;;;;;;6168141;23;20155;-84
2023/04/04 09:44:32;;;;;;;0.65;0.30;;;18.50;35.60;;;;;;6167832;23;20242;-84
2023/04/04 09:47:29;;;;;;;0.43;0.40;;;18.50;35.40;;;;;;6142510;23;20148;-84
2023/04/04 09:50:04;;;;;;;0.30;0.30;;;18.60;35.70;;;;;;6176903;23;20171;-84
2023/04/04 09:52:43;;;;;;;1.23;0.30;;;18.50;35.30;;;;;;6228761;23;20153;-85
2023/04/04 09:55:17;;;;;;;0.40;0.20;;;18.50;35.50;;;;;;6237679;22;20208;-85
2023/04/04 09:57:48;;;;;;;0.52;0.30;;;18.50;35.60;;;;;;6242663;22;20237;-85
2023/04/04 10:00:21;;;;;;;1.30;0.30;;;18.40;35.60;;;;;;6219230;22;20155;-84
2023/04/04 10:02:57;;;;;;;0.47;0.30;;;18.50;35.60;;;;;;6216741;22;20151;-85
2023/04/04 10:05:26;;;;;;;0.63;0.40;;;18.50;35.40;;;;;;6268872;22;20178;-85
2023/04/04 10:07:57;;;;;;;1.33;0.32;;;18.60;35.50;;;;;;6266653;22;20614;-85
2023/04/04 10:10:27;;;;;;;4.00;0.43;;;18.60;35.10;;;;;;6216323;22;20192;-87
2023/04/04 10:12:58;;;;;;;0.82;0.30;;;18.60;35.50;;;;;;6215826;22;20158;-85
2023/04/04 10:15:35;;;;;;;1.88;0.40;;;18.60;35.50;;;;;;6238828;22;20148;-84
2023/04/04 10:18:00;;;;;;;1.50;0.40;;;18.50;35.50;;;;;;6222607;22;20229;-85
2023/04/04 10:20:30;;;;;;;1.38;0.50;;;18.60;35.60;;;;;;6293431;22;20144;-84
2023/04/04 10:23:00;;;;;;;4.40;0.40;;;18.60;35.30;;;;;;6218531;22;20155;-84
2023/04/04 10:25:29;;;;;;;4.25;0.63;;;18.60;35.70;;;;;;6214132;22;20187;-85
2023/04/04 10:27:57;;;;;;;3.17;0.60;;;18.60;35.80;;;;;;6239806;22;20148;-85
2023/04/04 10:30:30;;;;;;;1.08;0.57;;;18.60;35.40;;;;;;6238645;22;20155;-84
2023/04/04 10:33:05;;;;;;;2.60;0.40;;;18.60;35.40;;;;;;6214422;22;20152;-85
2023/04/04 10:35:34;;;;;;;1.10;0.50;;;18.60;35.60;;;;;;6216237;22;20156;-86
2023/04/04 10:38:05;;;;;;;6.60;0.75;;;18.60;35.60;;;;;;6215782;22;20180;-85
2023/04/04 10:40:37;;;;;;;0.47;0.20;;;18.50;35.70;;;;;;6241499;22;20690;-85
2023/04/04 10:43:05;;;;;;;2.33;0.47;;;18.60;35.20;;;;;;6213710;22;20152;-85
2023/04/04 10:45:33;;;;;;;1.83;0.47;;;18.70;35.30;;;;;;6212299;22;20198;-84
2023/04/04 10:48:01;;;;;;;1.38;0.40;;;18.60;35.30;;;;;;6262301;22;20152;-85
2023/04/04 10:50:32;;;;;;;0.43;0.32;;;18.60;35.50;;;;;;6237293;22;20183;-84
2023/04/04 10:53:03;;;;;;;2.20;0.40;;;18.60;35.60;;;;;;6215306;22;20147;-86
2023/04/04 10:55:30;;;;;;;1.95;0.30;;;18.60;35.50;;;;;;6212730;22;20148;-85
2023/04/04 10:57:57;;;;;;;3.30;0.32;;;18.60;35.60;;;;;;6235203;22;20148;-84
2023/04/04 11:00:28;;;;;;;1.98;0.25;;;18.60;36.60;;;;;;6211069;22;20148;-84
2023/04/04 11:02:58;;;;;;;0.38;0.30;;;18.50;35.90;;;;;;6210418;22;20217;-84
2023/04/04 11:05:32;;;;;;;1.90;0.32;;;18.50;35.60;;;;;;6239399;22;20194;-85
2023/04/04 11:08:05;;;;;;;2.47;0.40;;;18.50;35.70;;;;;;6215746;22;20189;-85
2023/04/04 11:10:38;;;;;;;1.13;0.30;;;18.60;35.70;;;;;;6237650;22;20199;-85
2023/04/04 11:13:16;;;;;;;0.90;0.40;;;18.60;35.20;;;;;;6208040;22;20148;-85
2023/04/04 11:15:50;;;;;;;1.38;0.50;;;18.60;35.40;;;;;;6255977;22;20140;-84
2023/04/04 11:18:17;;;;;;;2.05;0.30;;;18.50;35.50;;;;;;6231814;22;20152;-85
2023/04/04 11:20:44;;;;;;;0.77;0.35;;;18.60;35.30;;;;;;6254281;22;20229;-85
2023/04/04 11:23:20;;;;;;;2.92;0.35;;;18.60;35.40;;;;;;6229568;22;20152;-85
2023/04/04 11:25:56;;;;;;;0.75;0.30;;;18.60;35.30;;;;;;6253852;22;20237;-85
2023/04/04 11:28:44;;;;;;;3.30;0.40;;;18.60;35.40;;;;;;6251766;22;20515;-84
2023/04/04 11:31:27;;;;;;;1.77;0.32;;;18.60;35.30;;;;;;6195229;23;20150;-85
2023/04/04 11:34:01;;;;;;;1.98;0.30;;;18.70;35.30;;;;;;6169606;23;20158;-85
2023/04/04 11:36:50;;;;;;;0.65;0.30;;;18.70;35.90;;;;;;6146857;23;20233;-84
2023/04/04 11:39:29;;;;;;;3.03;0.40;;;18.60;35.30;;;;;;6177958;23;20154;-84
2023/04/04 11:42:12;;;;;;;0.65;0.40;;;18.60;35.40;;;;;;6174978;23;20142;-84
2023/04/04 11:44:42;;;;;;;1.45;0.35;;;18.60;35.40;;;;;;6112104;23;20242;-86
2023/04/04 11:47:10;;;;;;;0.95;0.40;;;18.60;35.40;;;;;;6134688;23;20182;-84
2023/04/04 11:49:38;;;;;;;1.20;0.40;;;18.60;35.30;;;;;;6157241;23;20584;-84
2023/04/04 11:52:08;;;;;;;2.00;0.40;;;18.60;35.50;;;;;;6135072;23;20156;-84
2023/04/04 11:55:02;;;;;;;0.90;0.30;;;18.60;35.40;;;;;;6162701;23;20159;-85
2023/04/04 11:57:32;;;;;;;1.30;0.30;;;18.60;35.80;;;;;;6126416;23;20182;-83
2023/04/04 11:59:58;;;;;;;0.50;0.28;;;18.50;35.50;;;;;;6159020;23;20478;-84
2023/04/04 12:02:30;;;;;;;0.40;0.30;;;18.50;35.60;;;;;;6177572;23;20181;-85
2023/04/04 12:04:58;;;;;;;0.73;0.22;;;18.50;35.50;;;;;;6177618;23;20231;-83
2023/04/04 12:07:24;;;;;;;2.28;0.50;;;18.50;35.60;;;;;;6224096;23;20164;-84
2023/04/04 12:09:52;;;;;;;0.60;0.32;;;18.60;36.50;;;;;;6221438;23;20189;-84
2023/04/04 12:12:24;;;;;;;0.68;0.30;;;18.50;35.80;;;;;;6175379;23;20531;-84
2023/04/04 12:14:53;;;;;;;1.92;0.60;;;18.50;36.00;;;;;;6198387;23;20153;-83
2023/04/04 12:17:22;;;;;;;1.38;0.30;;;18.50;35.90;;;;;;6195774;23;20588;-84
2023/04/04 12:19:48;;;;;;;1.98;0.30;;;18.50;36.00;;;;;;6222699;23;20149;-84
2023/04/04 12:22:15;;;;;;;3.70;0.35;;;18.50;36.50;;;;;;6196511;23;20154;-83
2023/04/04 12:24:40;;;;;;;0.70;0.30;;;18.60;35.70;;;;;;6195580;23;20173;-84
2023/04/04 12:27:11;;;;;;;1.30;0.35;;;18.50;35.70;;;;;;6170682;23;20175;-84
2023/04/04 12:29:36;;;;;;;2.67;0.30;;;18.60;35.50;;;;;;6195456;23;20150;-83
2023/04/04 12:32:03;;;;;;;0.73;0.20;;;18.60;35.70;;;;;;6219510;23;20608;-83
2023/04/04 12:34:30;;;;;;;1.75;0.30;;;18.60;35.80;;;;;;6170791;23;20200;-85
2023/04/04 12:36:56;;;;;;;0.85;0.20;;;18.60;36.00;;;;;;6195068;23;20138;-84
2023/04/04 12:39:24;;;;;;;0.10;0.10;;;18.50;36.00;;;;;;6195553;23;20588;-83
2023/04/04 12:41:52;;;;;;;0.45;0.20;;;18.50;35.80;;;;;;6256264;22;20152;-84
2023/04/04 12:44:29;;;;;;;0.47;0.30;;;18.50;35.70;;;;;;6307624;22;20167;-83
2023/04/04 12:47:00;;;;;;;0.38;0.22;;;18.60;35.50;;;;;;6283879;22;20128;-83
2023/04/04 12:49:29;;;;;;;2.40;0.40;;;18.50;35.70;;;;;;6310357;22;20143;-83
2023/04/04 12:51:55;;;;;;;0.68;0.20;;;18.60;35.70;;;;;;6309439;22;20253;-83
2023/04/04 12:54:30;;;;;;;0.40;0.20;;;18.60;35.40;;;;;;6309121;22;20672;-84
2023/04/04 12:56:56;;;;;;;2.03;0.40;;;18.60;35.50;;;;;;6313503;22;20135;-85
2023/04/04 12:59:26;;;;;;;1.35;0.20;;;18.60;35.80;;;;;;6262470;22;20148;-85
2023/04/04 13:01:52;;;;;;;0.30;0.20;;;18.50;36.00;;;;;;6317027;22;20136;-85
2023/04/04 13:04:19;;;;;;;0.50;0.22;;;18.50;36.20;;;;;;6292389;22;20176;-84